Orlando, Florida
Traffic Map
Current Weather Conditions
Orlando, Florida
Clear
Clear
12°
Feels Like: 12°
Wind Chill: 12° Ceiling: Unl
Heat Index: 12° Visibility: 10mi
Dew Point: Wind: 7mph
Humidity: 61% Direction: 20° (NNE)
Pressure: 30.29in Gusts: 0mph
Raw Report DataKORL 140253Z AUTO 02006KT 10SM CLR 12/04 A3029 RMK AO2 SLP261 T01170044 51021
Traffic Incident Summary
Active as of:
Severity:
Category:
InformationThere was an issue retrieving the traffic information for this location. Please try a different location or try again shortly.
Advertisements
Track Severe Weather on mobile